createdAt,value
2019-03-16T00:01:56.188Z,10.60
2019-03-16T00:04:32.327Z,10.50
2019-03-16T00:07:32.410Z,10.50
2019-03-16T00:10:09.876Z,10.50
2019-03-16T00:12:57.337Z,10.50
2019-03-16T00:15:44.841Z,10.50
2019-03-16T00:18:32.509Z,10.50
2019-03-16T00:21:20.262Z,10.50
2019-03-16T00:24:07.641Z,10.50
2019-03-16T00:26:55.285Z,10.50
2019-03-16T00:29:43.096Z,10.50
2019-03-16T00:32:30.841Z,10.50
2019-03-16T00:35:18.346Z,10.50
2019-03-16T00:38:05.684Z,10.50
2019-03-16T00:40:53.219Z,10.40
2019-03-16T00:43:41.061Z,10.50
2019-03-16T00:46:28.528Z,10.50
2019-03-16T00:49:16.182Z,10.50
2019-03-16T00:52:03.719Z,10.50
2019-03-16T00:54:51.042Z,10.50
2019-03-16T00:57:38.595Z,10.60
2019-03-16T01:00:26.317Z,10.60
2019-03-16T01:03:14.055Z,10.70
2019-03-16T01:06:01.362Z,10.80
2019-03-16T01:08:49.010Z,10.80
2019-03-16T01:11:36.489Z,10.80
2019-03-16T01:14:24.089Z,10.80
2019-03-16T01:17:11.720Z,10.80
2019-03-16T01:19:59.693Z,10.80
2019-03-16T01:22:47.438Z,10.80
2019-03-16T01:25:34.874Z,10.90
2019-03-16T01:28:22.246Z,10.90
2019-03-16T01:31:09.898Z,10.90
2019-03-16T01:33:57.652Z,10.80
2019-03-16T01:36:45.352Z,10.80
2019-03-16T01:39:33.074Z,10.90
2019-03-16T01:42:20.480Z,10.80
2019-03-16T01:45:11.620Z,10.80
2019-03-16T01:47:59.160Z,10.90
2019-03-16T01:50:46.656Z,10.90
2019-03-16T01:53:34.318Z,10.90
2019-03-16T01:56:21.872Z,10.90
2019-03-16T01:59:09.554Z,10.90
2019-03-16T02:01:57.199Z,10.90
2019-03-16T02:04:44.600Z,10.90
2019-03-16T02:07:33.469Z,10.90
2019-03-16T02:10:20.877Z,10.90
2019-03-16T02:13:08.509Z,10.90
2019-03-16T02:16:09.888Z,10.90
2019-03-16T02:18:46.042Z,10.90
2019-03-16T02:21:33.788Z,10.90
2019-03-16T02:24:21.451Z,10.90
2019-03-16T02:27:09.115Z,10.90
2019-03-16T02:29:56.894Z,10.90
2019-03-16T02:32:44.481Z,10.90
2019-03-16T02:35:32.180Z,10.90
2019-03-16T02:38:19.883Z,10.90
2019-03-16T02:41:07.667Z,10.90
2019-03-16T02:43:55.339Z,10.90
2019-03-16T02:46:42.747Z,10.90
2019-03-16T02:49:30.510Z,10.90
2019-03-16T02:52:18.180Z,10.90
2019-03-16T02:55:07.961Z,10.90
2019-03-16T02:57:55.535Z,10.90
2019-03-16T03:00:43.334Z,10.90
2019-03-16T03:03:30.929Z,10.90
2019-03-16T03:06:18.373Z,10.90
2019-03-16T03:09:08.191Z,10.80
2019-03-16T03:11:55.878Z,10.80
2019-03-16T03:14:43.590Z,10.80
2019-03-16T03:17:31.285Z,10.80
2019-03-16T03:20:18.839Z,10.80
2019-03-16T03:23:06.617Z,10.90
2019-03-16T03:25:54.234Z,10.90
2019-03-16T03:28:41.637Z,10.90
2019-03-16T03:31:29.213Z,10.90
2019-03-16T03:34:17.016Z,10.90
2019-03-16T03:37:04.580Z,10.90
2019-03-16T03:39:52.128Z,10.90
2019-03-16T03:42:39.639Z,10.90
2019-03-16T03:45:27.377Z,11.00
2019-03-16T03:48:14.955Z,11.00
2019-03-16T03:51:02.670Z,11.00
2019-03-16T03:53:50.433Z,11.10
2019-03-16T03:56:37.841Z,11.10
2019-03-16T03:59:25.512Z,11.10
2019-03-16T04:02:12.929Z,11.10
2019-03-16T04:05:00.826Z,11.10
2019-03-16T04:07:48.551Z,11.10
2019-03-16T04:10:36.269Z,11.10
2019-03-16T04:13:23.665Z,11.10
2019-03-16T04:16:11.168Z,11.20
2019-03-16T04:18:58.649Z,11.20
2019-03-16T04:21:46.112Z,11.20
2019-03-16T04:24:33.716Z,11.20
2019-03-16T04:27:21.414Z,11.20
2019-03-16T04:30:10.536Z,11.20
2019-03-16T04:32:58.151Z,11.20
2019-03-16T04:35:45.548Z,11.30
2019-03-16T04:38:32.880Z,11.20
2019-03-16T04:41:20.513Z,11.30
2019-03-16T04:44:08.171Z,11.20
2019-03-16T04:46:56.052Z,11.30
2019-03-16T04:49:43.489Z,11.30
2019-03-16T04:52:31.092Z,11.30
2019-03-16T04:55:18.492Z,11.30
2019-03-16T04:58:06.296Z,11.30
2019-03-16T05:00:53.797Z,11.30
2019-03-16T05:03:42.134Z,11.30
2019-03-16T05:06:29.882Z,11.30
2019-03-16T05:09:17.313Z,11.30
2019-03-16T05:12:04.968Z,11.30
2019-03-16T05:14:52.614Z,11.30
2019-03-16T05:17:40.149Z,11.30
2019-03-16T05:20:27.568Z,11.20
2019-03-16T05:23:14.976Z,11.20
2019-03-16T05:26:02.649Z,11.20
2019-03-16T05:28:50.225Z,11.20
2019-03-16T05:31:37.896Z,11.20
2019-03-16T05:34:25.537Z,11.20
2019-03-16T05:37:13.186Z,11.20
2019-03-16T05:40:00.631Z,11.20
2019-03-16T05:42:48.097Z,11.20
2019-03-16T05:45:35.808Z,11.20
2019-03-16T05:48:23.285Z,11.20
2019-03-16T05:51:11.121Z,11.10
2019-03-16T05:53:58.776Z,11.10
2019-03-16T05:56:46.373Z,11.10
2019-03-16T05:59:34.184Z,11.10
2019-03-16T06:02:21.910Z,11.10
2019-03-16T06:05:11.206Z,11.10
2019-03-16T06:07:59.216Z,11.10
2019-03-16T06:10:46.951Z,11.00
2019-03-16T06:13:34.607Z,11.00
2019-03-16T06:16:22.028Z,11.00
2019-03-16T06:19:09.701Z,11.00
2019-03-16T06:21:58.073Z,11.00
2019-03-16T06:24:45.498Z,11.00
2019-03-16T06:27:32.878Z,11.00
2019-03-16T06:30:21.011Z,11.00
2019-03-16T06:33:08.848Z,11.00
2019-03-16T06:35:56.554Z,11.10
2019-03-16T06:38:44.200Z,11.10
2019-03-16T06:41:31.710Z,11.20
2019-03-16T06:44:19.061Z,11.20
2019-03-16T06:47:06.685Z,11.30
2019-03-16T06:49:54.304Z,11.30
2019-03-16T06:52:42.010Z,11.30
2019-03-16T06:55:29.442Z,11.30
2019-03-16T06:58:16.923Z,11.30
2019-03-16T07:01:04.468Z,11.30
2019-03-16T07:03:52.075Z,11.30
2019-03-16T07:06:39.489Z,11.30
2019-03-16T07:09:27.182Z,11.30
2019-03-16T07:12:15.045Z,11.30
2019-03-16T07:15:02.518Z,11.30
2019-03-16T07:17:49.971Z,11.40
2019-03-16T07:20:37.770Z,11.30
2019-03-16T07:23:25.719Z,11.30
2019-03-16T07:26:15.067Z,11.30
2019-03-16T07:29:03.376Z,11.30
2019-03-16T07:31:50.837Z,11.20
2019-03-16T07:34:40.062Z,11.10
2019-03-16T07:37:27.811Z,11.10
2019-03-16T07:40:15.376Z,11.10
2019-03-16T07:43:03.064Z,11.10
2019-03-16T07:45:50.777Z,11.20
2019-03-16T07:48:38.472Z,11.20
2019-03-16T07:51:26.165Z,11.30
2019-03-16T07:54:13.927Z,11.30
2019-03-16T07:57:01.672Z,11.20
2019-03-16T07:59:49.199Z,11.20
2019-03-16T08:02:36.624Z,11.10
2019-03-16T08:05:24.141Z,11.10
2019-03-16T08:08:11.910Z,11.00
2019-03-16T08:10:59.569Z,11.00
2019-03-16T08:13:47.127Z,11.00
2019-03-16T08:16:34.995Z,11.00
2019-03-16T08:19:22.420Z,11.00
2019-03-16T08:22:09.829Z,11.10
2019-03-16T08:24:57.477Z,11.10
2019-03-16T08:27:53.994Z,11.20
2019-03-16T08:30:34.477Z,11.20
2019-03-16T08:33:22.085Z,11.40
2019-03-16T08:36:09.856Z,11.40
2019-03-16T08:38:57.686Z,11.40
2019-03-16T08:41:45.354Z,11.30
2019-03-16T08:44:33.023Z,11.20
2019-03-16T08:47:20.648Z,11.20
2019-03-16T08:50:10.319Z,11.20
2019-03-16T08:52:57.993Z,11.10
2019-03-16T08:55:45.680Z,11.10
2019-03-16T08:58:33.095Z,11.00
2019-03-16T09:01:20.768Z,11.00
2019-03-16T09:04:08.339Z,11.00
2019-03-16T09:06:55.781Z,11.00
2019-03-16T09:09:43.249Z,11.00
2019-03-16T09:12:30.996Z,11.10
2019-03-16T09:15:18.745Z,11.20
2019-03-16T09:18:06.129Z,11.30
2019-03-16T09:20:53.872Z,11.50
2019-03-16T09:23:41.222Z,11.80
2019-03-16T09:26:28.656Z,12.00
2019-03-16T09:29:16.104Z,12.20
2019-03-16T09:32:03.941Z,12.30
2019-03-16T09:34:51.523Z,12.20
2019-03-16T09:37:38.961Z,12.00
2019-03-16T09:40:26.553Z,12.00
2019-03-16T09:43:14.332Z,12.00
2019-03-16T09:46:01.908Z,12.00
2019-03-16T09:48:49.497Z,12.10
2019-03-16T09:51:37.304Z,12.10
2019-03-16T09:54:24.727Z,12.10
2019-03-16T09:57:12.198Z,12.10
2019-03-16T09:59:59.663Z,12.10
2019-03-16T10:02:47.560Z,12.10
2019-03-16T10:05:35.143Z,12.10
2019-03-16T10:08:22.821Z,12.10
2019-03-16T10:11:10.465Z,12.10
2019-03-16T10:13:57.886Z,12.30
2019-03-16T10:16:45.544Z,12.40
2019-03-16T10:19:33.251Z,12.50
2019-03-16T10:22:21.104Z,12.70
2019-03-16T10:25:09.050Z,12.90
2019-03-16T10:27:56.759Z,13.00
2019-03-16T10:30:44.463Z,12.80
2019-03-16T10:33:31.988Z,12.70
2019-03-16T10:36:19.356Z,13.00
2019-03-16T10:39:07.385Z,13.10
2019-03-16T10:41:55.035Z,13.60
2019-03-16T10:44:42.640Z,14.20
2019-03-16T10:47:30.057Z,14.30
2019-03-16T10:50:17.809Z,14.30
2019-03-16T10:53:05.309Z,14.30
2019-03-16T10:55:52.692Z,14.30
2019-03-16T10:58:40.344Z,14.30
2019-03-16T11:01:28.083Z,14.20
2019-03-16T11:04:15.879Z,14.00
2019-03-16T11:07:03.345Z,13.80
2019-03-16T11:09:50.764Z,13.50
2019-03-16T11:12:38.452Z,13.60
2019-03-16T11:15:25.977Z,13.70
2019-03-16T11:18:13.635Z,14.00
2019-03-16T11:21:01.208Z,14.20
2019-03-16T11:23:48.716Z,14.30
2019-03-16T11:26:36.368Z,14.30
2019-03-16T11:29:24.016Z,14.20
2019-03-16T11:32:11.660Z,14.10
2019-03-16T11:34:59.414Z,13.80
2019-03-16T11:37:46.793Z,14.20
2019-03-16T11:40:34.449Z,14.70
2019-03-16T11:43:22.178Z,15.00
2019-03-16T11:46:13.235Z,15.20
2019-03-16T11:49:01.530Z,15.10
2019-03-16T11:51:52.553Z,14.90
2019-03-16T11:54:40.299Z,14.70
2019-03-16T11:57:28.130Z,14.70
2019-03-16T12:00:15.988Z,14.90
2019-03-16T12:03:03.348Z,14.90
2019-03-16T12:05:51.845Z,15.10
2019-03-16T12:08:39.760Z,15.00
2019-03-16T12:11:27.646Z,15.00
2019-03-16T12:14:15.397Z,15.10
2019-03-16T12:17:02.895Z,15.40
2019-03-16T12:19:50.668Z,15.50
2019-03-16T12:22:38.461Z,15.80
2019-03-16T12:25:26.153Z,16.20
2019-03-16T12:28:13.560Z,16.10
2019-03-16T12:31:01.017Z,15.60
2019-03-16T12:33:48.878Z,15.40
2019-03-16T12:36:36.280Z,15.40
2019-03-16T12:39:23.711Z,15.10
2019-03-16T12:42:11.145Z,14.60
2019-03-16T12:44:58.780Z,14.20
2019-03-16T12:47:46.481Z,13.90
2019-03-16T12:50:33.938Z,13.70
2019-03-16T12:53:21.691Z,13.80
2019-03-16T12:56:09.360Z,14.00
2019-03-16T12:59:09.510Z,14.10
2019-03-16T13:01:46.119Z,14.20
2019-03-16T13:04:33.896Z,14.20
2019-03-16T13:07:21.750Z,14.30
2019-03-16T13:10:15.589Z,14.40
2019-03-16T13:13:03.567Z,14.30
2019-03-16T13:15:51.059Z,14.30
2019-03-16T13:18:38.733Z,14.40
2019-03-16T13:21:26.370Z,14.60
2019-03-16T13:24:13.843Z,15.00
2019-03-16T13:27:01.372Z,15.30
2019-03-16T13:29:58.446Z,15.70
2019-03-16T13:32:38.773Z,15.70
2019-03-16T13:35:26.409Z,15.50
2019-03-16T13:38:13.840Z,15.20
2019-03-16T13:41:01.731Z,15.00
2019-03-16T13:43:49.152Z,15.20
2019-03-16T13:46:36.791Z,15.40
2019-03-16T13:49:24.175Z,15.50
2019-03-16T13:52:11.744Z,15.70
2019-03-16T13:54:59.594Z,15.80
2019-03-16T13:57:47.524Z,15.50
2019-03-16T14:00:35.676Z,15.40
2019-03-16T14:03:23.321Z,15.40
2019-03-16T14:06:10.972Z,15.30
2019-03-16T14:08:58.418Z,15.00
2019-03-16T14:11:46.177Z,14.90
2019-03-16T14:14:33.712Z,14.60
2019-03-16T14:17:21.549Z,14.50
2019-03-16T14:20:12.007Z,14.40
2019-03-16T14:22:59.305Z,14.20
2019-03-16T14:25:46.802Z,14.30
2019-03-16T14:28:34.444Z,14.30
2019-03-16T14:31:21.924Z,14.30
2019-03-16T14:34:09.502Z,14.30
2019-03-16T14:36:57.608Z,14.30
2019-03-16T14:39:45.119Z,14.20
2019-03-16T14:42:33.119Z,14.10
2019-03-16T14:45:20.614Z,14.10
2019-03-16T14:48:08.211Z,14.20
2019-03-16T14:50:55.768Z,14.20
2019-03-16T14:53:43.150Z,14.40
2019-03-16T14:56:30.618Z,14.70
2019-03-16T14:59:18.346Z,14.70
2019-03-16T15:02:06.005Z,14.60
2019-03-16T15:04:53.727Z,14.50
2019-03-16T15:07:41.384Z,14.50
2019-03-16T15:10:28.959Z,14.60
2019-03-16T15:13:16.670Z,14.90
2019-03-16T15:16:04.436Z,15.20
2019-03-16T15:18:52.071Z,15.50
2019-03-16T15:21:39.676Z,15.70
2019-03-16T15:24:27.196Z,15.70
2019-03-16T15:27:15.974Z,15.60
2019-03-16T15:30:05.500Z,15.50
2019-03-16T15:32:52.933Z,15.30
2019-03-16T15:36:01.466Z,14.90
2019-03-16T15:38:49.156Z,14.90
2019-03-16T15:41:36.784Z,14.60
2019-03-16T15:44:24.458Z,14.50
2019-03-16T15:47:12.090Z,14.30
2019-03-16T15:49:59.611Z,14.20
2019-03-16T15:52:47.264Z,14.20
2019-03-16T15:55:34.880Z,14.20
2019-03-16T16:02:09.364Z,14.20
2019-03-16T16:04:56.968Z,14.10
2019-03-16T16:07:44.356Z,14.10
2019-03-16T16:10:32.024Z,14.00
2019-03-16T16:13:19.552Z,13.90
2019-03-16T16:16:07.127Z,13.80
2019-03-16T16:18:54.589Z,13.80
2019-03-16T16:21:42.136Z,13.80
2019-03-16T16:24:29.876Z,13.60
2019-03-16T16:27:17.404Z,13.60
2019-03-16T16:30:19.260Z,13.50
2019-03-16T16:33:06.766Z,13.50
2019-03-16T16:35:54.396Z,13.40
2019-03-16T16:38:41.867Z,13.40
2019-03-16T16:41:29.629Z,13.40
2019-03-16T16:44:17.036Z,13.40
2019-03-16T16:47:04.740Z,13.30
2019-03-16T16:49:52.165Z,13.30
2019-03-16T16:52:39.969Z,13.10
2019-03-16T16:55:27.661Z,13.00
2019-03-16T16:58:15.048Z,12.70
2019-03-16T17:01:02.676Z,12.50
2019-03-16T17:03:50.248Z,12.40
2019-03-16T17:06:37.686Z,12.10
2019-03-16T17:09:25.409Z,12.10
2019-03-16T17:12:12.897Z,11.90
2019-03-16T17:15:00.556Z,11.60
2019-03-16T17:17:48.316Z,11.40
2019-03-16T17:20:35.916Z,11.20
2019-03-16T17:23:23.564Z,11.00
2019-03-16T17:26:11.298Z,10.50
2019-03-16T17:28:59.000Z,10.50
2019-03-16T17:31:46.775Z,10.30
2019-03-16T17:34:34.332Z,10.10
2019-03-16T17:37:21.819Z,9.90
2019-03-16T17:40:11.179Z,9.80
2019-03-16T17:42:58.908Z,9.60
2019-03-16T17:45:46.456Z,9.20
2019-03-16T17:48:34.161Z,9.10
2019-03-16T17:51:21.755Z,9.00
2019-03-16T17:54:09.230Z,8.90
2019-03-16T17:56:56.592Z,8.70
2019-03-16T17:59:44.229Z,8.60
2019-03-16T18:02:31.628Z,8.50
2019-03-16T18:05:19.228Z,8.30
2019-03-16T18:08:06.833Z,8.20
2019-03-16T18:10:54.177Z,8.20
2019-03-16T18:13:41.605Z,8.10
2019-03-16T18:16:29.179Z,8.00
2019-03-16T18:19:16.665Z,8.00
2019-03-16T18:22:04.384Z,7.90
2019-03-16T18:24:51.971Z,7.80
2019-03-16T18:27:39.726Z,7.60
2019-03-16T18:30:27.332Z,7.60
2019-03-16T18:33:15.131Z,7.50
2019-03-16T18:36:02.613Z,7.30
2019-03-16T18:38:50.020Z,7.30
2019-03-16T18:41:37.673Z,7.30
2019-03-16T18:44:25.090Z,7.20
2019-03-16T18:47:12.746Z,7.00
2019-03-16T18:50:00.405Z,6.90
2019-03-16T18:52:47.877Z,6.80
2019-03-16T18:55:35.394Z,6.70
2019-03-16T18:59:23.726Z,6.60
2019-03-16T19:01:12.261Z,6.50
2019-03-16T19:03:59.953Z,6.40
2019-03-16T19:06:47.390Z,6.20
2019-03-16T19:09:34.962Z,6.20
2019-03-16T19:12:22.635Z,6.10
2019-03-16T19:15:13.118Z,6.10
2019-03-16T19:18:00.789Z,6.00
2019-03-16T19:20:48.476Z,5.90
2019-03-16T19:23:36.145Z,5.80
2019-03-16T19:26:23.752Z,5.70
2019-03-16T19:29:11.213Z,5.70
2019-03-16T19:31:58.741Z,5.60
2019-03-16T19:34:46.382Z,5.60
2019-03-16T19:37:34.043Z,5.50
2019-03-16T19:40:22.980Z,5.40
2019-03-16T19:43:10.269Z,5.40
2019-03-16T19:46:00.453Z,5.30
2019-03-16T19:48:47.569Z,5.20
2019-03-16T19:51:34.983Z,5.20
2019-03-16T19:54:22.388Z,5.20
2019-03-16T19:57:15.904Z,5.00
2019-03-16T19:59:59.500Z,5.00
2019-03-16T20:02:51.480Z,4.90
2019-03-16T20:05:36.815Z,4.80
2019-03-16T20:08:24.496Z,4.70
2019-03-16T20:11:12.052Z,4.70
2019-03-16T20:13:59.632Z,4.60
2019-03-16T20:16:47.254Z,4.50
2019-03-16T20:19:34.705Z,4.50
2019-03-16T20:22:22.369Z,4.50
2019-03-16T20:25:10.190Z,4.40
2019-03-16T20:27:57.622Z,4.30
2019-03-16T20:30:45.326Z,4.20
2019-03-16T20:33:33.066Z,4.20
2019-03-16T20:36:20.840Z,4.10
2019-03-16T20:39:08.493Z,4.00
2019-03-16T20:41:56.207Z,4.00
2019-03-16T20:44:43.675Z,3.90
2019-03-16T20:47:31.348Z,3.80
2019-03-16T20:50:19.971Z,3.80
2019-03-16T20:53:07.565Z,3.70
2019-03-16T20:55:55.341Z,3.70
2019-03-16T20:58:43.002Z,3.70
2019-03-16T21:01:30.594Z,3.70
2019-03-16T21:04:18.184Z,3.60
2019-03-16T21:07:05.880Z,3.50
2019-03-16T21:09:53.248Z,3.40
2019-03-16T21:12:41.000Z,3.40
2019-03-16T21:15:28.652Z,3.40
2019-03-16T21:18:16.241Z,3.50
2019-03-16T21:21:03.753Z,3.40
2019-03-16T21:23:51.141Z,3.30
2019-03-16T21:26:38.556Z,3.10
2019-03-16T21:29:26.447Z,3.10
2019-03-16T21:32:13.968Z,3.00
2019-03-16T21:35:01.717Z,2.90
2019-03-16T21:37:49.244Z,2.90
2019-03-16T21:40:36.606Z,2.80
2019-03-16T21:43:24.262Z,2.80
2019-03-16T21:46:11.681Z,2.80
2019-03-16T21:48:59.416Z,2.80
2019-03-16T21:51:47.048Z,2.70
2019-03-16T21:54:35.732Z,2.70
2019-03-16T21:57:23.221Z,2.60
2019-03-16T22:00:15.752Z,2.60
2019-03-16T22:03:03.247Z,0.40
2019-03-16T22:05:50.774Z,2.50
2019-03-16T22:08:38.434Z,2.50
2019-03-16T22:11:26.219Z,2.50
2019-03-16T22:14:13.857Z,2.40
2019-03-16T22:17:01.286Z,2.40
2019-03-16T22:19:49.034Z,2.50
2019-03-16T22:22:36.938Z,2.50
2019-03-16T22:25:24.684Z,2.40
2019-03-16T22:28:12.061Z,2.40
2019-03-16T22:30:59.648Z,2.30
2019-03-16T22:33:54.373Z,3.30
2019-03-16T22:36:36.801Z,2.50
2019-03-16T22:39:24.478Z,2.50
2019-03-16T22:42:11.904Z,2.50
2019-03-16T22:44:59.812Z,2.50
2019-03-16T22:47:47.285Z,2.40
2019-03-16T22:50:34.728Z,2.50
2019-03-16T22:53:22.180Z,2.40
2019-03-16T22:56:09.965Z,2.40
2019-03-16T22:58:57.415Z,2.40
2019-03-16T23:01:45.064Z,2.30
2019-03-16T23:04:32.772Z,2.30
2019-03-16T23:07:20.224Z,2.30
2019-03-16T23:10:11.480Z,2.20
2019-03-16T23:12:59.098Z,2.10
2019-03-16T23:15:46.806Z,2.00
2019-03-16T23:18:34.589Z,2.00
2019-03-16T23:21:22.227Z,2.00
2019-03-16T23:24:09.591Z,2.10
2019-03-16T23:26:57.256Z,1.90
2019-03-16T23:29:44.948Z,2.00
2019-03-16T23:32:32.593Z,1.90
2019-03-16T23:35:20.317Z,1.80
2019-03-16T23:38:08.192Z,1.80
2019-03-16T23:40:55.769Z,1.80
2019-03-16T23:43:43.392Z,1.90
2019-03-16T23:46:31.064Z,1.80
2019-03-16T23:49:18.604Z,1.80
2019-03-16T23:52:05.925Z,1.70
2019-03-16T23:54:53.345Z,1.70
2019-03-16T23:57:40.894Z,1.60
